Time;durP1;ratioP1;P1;durP2;ratioP2;P2;SDS_P1;SDS_P2;PMS_P1;PMS_P2;Temp;Humidity;BMP_temperature;BMP_pressure;BME280_temperature;BME280_humidity;BME280_pressure;Samples;Min_cycle;Max_cycle;Signal;HPM_P1;HPM_P2
2023/03/09 00:00:36;;;;;;;22.47;20.03;;;2.00;99.90;;;;;;5104520;28;20423;-76
2023/03/09 00:03:02;;;;;;;23.23;19.07;;;1.90;99.90;;;;;;5101508;27;20427;-76
2023/03/09 00:05:28;;;;;;;25.17;20.95;;;2.00;99.90;;;;;;5103365;28;20438;-76
2023/03/09 00:07:55;;;;;;;24.45;19.98;;;2.00;99.90;;;;;;5099761;28;20502;-76
2023/03/09 00:10:22;;;;;;;23.52;18.75;;;2.00;99.90;;;;;;5102154;28;20412;-77
2023/03/09 00:12:48;;;;;;;23.25;19.85;;;2.00;99.90;;;;;;5138820;27;20416;-79
2023/03/09 00:15:14;;;;;;;25.98;19.67;;;2.00;99.90;;;;;;5085255;28;21368;-76
2023/03/09 00:17:42;;;;;;;23.70;19.83;;;1.90;99.90;;;;;;5106579;27;20427;-78
2023/03/09 00:20:17;;;;;;;22.52;20.00;;;1.90;99.90;;;;;;5096549;27;20433;-76
2023/03/09 00:22:54;;;;;;;22.50;19.63;;;1.80;99.90;;;;;;5109818;27;20746;-78
2023/03/09 00:25:23;;;;;;;23.02;18.23;;;1.70;99.90;;;;;;5108882;27;21095;-77
2023/03/09 00:27:50;;;;;;;21.27;19.00;;;1.80;99.90;;;;;;5141436;27;20415;-77
2023/03/09 00:30:17;;;;;;;23.00;18.92;;;1.70;99.90;;;;;;5104997;28;20532;-76
2023/03/09 00:32:45;;;;;;;20.52;18.35;;;1.80;99.90;;;;;;5107068;27;20429;-76
2023/03/09 00:35:11;;;;;;;21.03;18.30;;;1.60;99.90;;;;;;5103205;27;20429;-77
2023/03/09 00:37:39;;;;;;;20.60;18.27;;;1.70;99.90;;;;;;5107995;28;20412;-76
2023/03/09 00:40:09;;;;;;;21.13;18.10;;;1.70;99.90;;;;;;5090978;28;20793;-77
2023/03/09 00:42:41;;;;;;;22.80;18.98;;;1.70;99.90;;;;;;5103418;28;20425;-76
2023/03/09 00:45:07;;;;;;;21.30;17.52;;;1.60;99.90;;;;;;5107949;27;20427;-77
2023/03/09 00:47:33;;;;;;;19.20;16.20;;;1.60;99.90;;;;;;5108829;28;20550;-76
2023/03/09 00:49:58;;;;;;;19.60;17.60;;;1.60;99.90;;;;;;5099760;28;20503;-76
2023/03/09 00:52:24;;;;;;;22.08;18.33;;;1.60;99.90;;;;;;5112394;28;20410;-77
2023/03/09 00:54:53;;;;;;;21.60;17.00;;;1.60;99.90;;;;;;5117072;28;20429;-77
2023/03/09 00:57:20;;;;;;;21.63;16.57;;;1.50;99.90;;;;;;5105902;27;20765;-77
2023/03/09 00:59:46;;;;;;;21.02;16.70;;;1.40;99.90;;;;;;5109479;28;20503;-76
2023/03/09 01:02:12;;;;;;;19.13;16.47;;;1.50;99.90;;;;;;5102328;28;20511;-77
2023/03/09 01:04:37;;;;;;;18.70;16.13;;;1.40;99.90;;;;;;5133169;27;20814;-75
2023/03/09 01:07:03;;;;;;;17.55;15.55;;;1.30;99.90;;;;;;5108689;27;20430;-76
2023/03/09 01:09:29;;;;;;;19.30;16.10;;;1.40;99.90;;;;;;5153655;27;20426;-76
2023/03/09 01:11:55;;;;;;;24.17;16.30;;;1.30;99.90;;;;;;5149745;27;20554;-77
2023/03/09 01:14:21;;;;;;;19.70;16.57;;;1.30;99.90;;;;;;5145921;27;20418;-77
2023/03/09 01:16:47;;;;;;;20.07;16.93;;;1.30;99.90;;;;;;5109893;28;20905;-76
2023/03/09 01:19:13;;;;;;;19.05;16.90;;;1.30;99.90;;;;;;5120927;27;20476;-76
2023/03/09 01:21:39;;;;;;;22.08;17.20;;;1.20;99.90;;;;;;5109416;27;20420;-76
2023/03/09 01:24:05;;;;;;;18.95;16.70;;;1.20;99.90;;;;;;5112113;27;20418;-76
2023/03/09 01:26:31;;;;;;;20.30;16.27;;;1.20;99.90;;;;;;5092750;27;20448;-76
2023/03/09 01:28:57;;;;;;;20.77;17.73;;;1.20;99.90;;;;;;5102434;27;20491;-76
2023/03/09 01:31:22;;;;;;;20.30;17.58;;;1.10;99.90;;;;;;5111320;27;20841;-76
2023/03/09 01:33:49;;;;;;;18.83;16.65;;;1.00;99.90;;;;;;5113890;27;20502;-76
2023/03/09 01:36:17;;;;;;;19.90;16.85;;;1.00;99.90;;;;;;5110292;27;20433;-75
2023/03/09 01:38:44;;;;;;;19.58;16.23;;;1.00;99.90;;;;;;5141504;27;20426;-75
2023/03/09 01:41:11;;;;;;;19.85;16.65;;;1.00;99.90;;;;;;5108348;27;20412;-76
2023/03/09 01:43:40;;;;;;;17.42;15.55;;;1.00;99.90;;;;;;5108007;27;20667;-76
2023/03/09 01:46:24;;;;;;;18.05;15.48;;;0.90;99.90;;;;;;5087810;27;20431;-75
2023/03/09 01:48:50;;;;;;;22.10;15.75;;;0.90;99.90;;;;;;5110133;27;20438;-77
2023/03/09 01:51:20;;;;;;;19.30;16.08;;;0.80;99.90;;;;;;5105927;27;20433;-77
2023/03/09 01:53:48;;;;;;;19.38;15.30;;;0.90;99.90;;;;;;5140965;27;20428;-77
2023/03/09 01:56:16;;;;;;;19.63;16.30;;;0.90;99.90;;;;;;5107735;28;20420;-76
2023/03/09 01:58:42;;;;;;;19.20;15.55;;;0.90;99.90;;;;;;5106506;27;20461;-76
2023/03/09 02:01:10;;;;;;;17.85;15.20;;;0.90;99.90;;;;;;5108169;28;20790;-77
2023/03/09 02:03:40;;;;;;;18.70;15.05;;;0.80;99.90;;;;;;5106339;27;20444;-76
2023/03/09 02:06:26;;;;;;;20.10;14.20;;;0.80;99.90;;;;;;5135899;22;20537;-78
2023/03/09 02:08:55;;;;;;;19.95;15.68;;;0.90;99.90;;;;;;5023794;28;20435;-76
2023/03/09 02:11:20;;;;;;;17.15;13.82;;;0.90;99.90;;;;;;5021616;28;20449;-77
2023/03/09 02:13:50;;;;;;;16.30;14.10;;;0.90;99.90;;;;;;5024199;28;20435;-74
2023/03/09 02:16:16;;;;;;;15.70;13.57;;;0.90;99.90;;;;;;5025224;28;20458;-77
2023/03/09 02:18:42;;;;;;;14.75;12.77;;;0.90;99.90;;;;;;5020519;28;22344;-76
2023/03/09 02:21:15;;;;;;;16.42;13.45;;;1.00;99.90;;;;;;5015744;28;20480;-77
2023/03/09 02:24:02;;;;;;;15.50;12.88;;;0.90;99.90;;;;;;5024714;28;20928;-76
2023/03/09 02:26:45;;;;;;;16.70;13.85;;;0.90;99.90;;;;;;5025988;28;20426;-76
2023/03/09 02:29:12;;;;;;;16.52;13.65;;;1.00;99.90;;;;;;5025490;28;20438;-77
2023/03/09 02:31:39;;;;;;;16.95;13.70;;;1.10;99.90;;;;;;5024606;28;20514;-76
2023/03/09 02:34:05;;;;;;;16.90;14.00;;;1.10;99.90;;;;;;5024917;28;21028;-77
2023/03/09 02:36:30;;;;;;;16.40;13.53;;;0.90;99.90;;;;;;5006621;28;20438;-76
2023/03/09 02:39:07;;;;;;;15.55;13.18;;;0.90;99.90;;;;;;5019214;28;20439;-76
2023/03/09 02:41:34;;;;;;;16.10;13.10;;;0.90;99.90;;;;;;5018583;28;20469;-75
2023/03/09 02:44:00;;;;;;;17.92;14.00;;;0.90;99.90;;;;;;5027129;28;20419;-76
2023/03/09 02:46:26;;;;;;;15.23;13.60;;;0.90;99.90;;;;;;5024242;28;20435;-76
2023/03/09 02:48:52;;;;;;;17.83;14.20;;;0.90;99.90;;;;;;5023697;28;20480;-76
2023/03/09 02:51:18;;;;;;;16.27;13.85;;;0.90;99.90;;;;;;5023077;28;20427;-77
2023/03/09 02:53:43;;;;;;;19.07;16.27;;;0.90;99.90;;;;;;5023642;28;20518;-76
2023/03/09 02:56:09;;;;;;;19.63;15.50;;;1.00;99.90;;;;;;5028849;28;20501;-77
2023/03/09 02:58:35;;;;;;;17.88;15.32;;;0.90;99.90;;;;;;5020077;28;20432;-76
2023/03/09 03:01:01;;;;;;;18.05;15.30;;;0.90;99.90;;;;;;5024387;28;20442;-76
2023/03/09 03:03:27;;;;;;;18.90;15.90;;;1.00;99.90;;;;;;5017901;28;20431;-75
2023/03/09 03:05:53;;;;;;;18.60;15.65;;;0.90;99.90;;;;;;5019017;28;20853;-77
2023/03/09 03:08:19;;;;;;;28.83;16.20;;;1.00;99.90;;;;;;5024727;28;20518;-77
2023/03/09 03:10:44;;;;;;;19.90;16.03;;;1.00;99.90;;;;;;5025444;28;20418;-76
2023/03/09 03:13:10;;;;;;;20.27;16.27;;;0.90;99.90;;;;;;5024568;28;20522;-75
2023/03/09 03:15:36;;;;;;;22.63;17.20;;;0.90;99.90;;;;;;5017217;28;20435;-76
2023/03/09 03:18:01;;;;;;;19.37;15.77;;;0.90;99.90;;;;;;5023730;28;20478;-76
2023/03/09 03:20:27;;;;;;;22.23;16.80;;;0.80;99.90;;;;;;5021615;28;20454;-76
2023/03/09 03:22:53;;;;;;;22.53;18.67;;;0.80;99.90;;;;;;5023726;28;20427;-76
2023/03/09 03:25:19;;;;;;;20.90;16.67;;;0.90;99.90;;;;;;5018715;28;20483;-76
2023/03/09 03:27:45;;;;;;;18.95;15.95;;;0.80;99.90;;;;;;5022463;28;20524;-76
2023/03/09 03:30:13;;;;;;;18.87;15.80;;;0.90;99.90;;;;;;5023136;28;20658;-76
2023/03/09 03:32:38;;;;;;;23.27;17.63;;;0.90;99.90;;;;;;5026024;28;20552;-76
2023/03/09 03:35:05;;;;;;;20.38;16.58;;;0.80;99.90;;;;;;5024788;28;20513;-76
2023/03/09 03:37:30;;;;;;;22.00;16.63;;;0.90;99.90;;;;;;5025394;28;20439;-76
2023/03/09 03:39:56;;;;;;;19.63;17.53;;;0.90;99.90;;;;;;5014472;28;20437;-75
2023/03/09 03:42:22;;;;;;;23.92;16.73;;;0.80;99.90;;;;;;5027430;28;20426;-76
2023/03/09 03:44:48;;;;;;;23.27;17.17;;;0.80;99.90;;;;;;5025809;28;20774;-76
2023/03/09 03:47:13;;;;;;;22.33;15.90;;;0.70;99.90;;;;;;5022714;28;20438;-76
2023/03/09 03:49:40;;;;;;;21.23;16.87;;;0.70;99.90;;;;;;5022483;28;20422;-77
2023/03/09 03:52:06;;;;;;;20.98;17.10;;;0.80;99.90;;;;;;5025199;28;20462;-76
2023/03/09 03:54:32;;;;;;;22.35;17.65;;;0.80;99.90;;;;;;5023269;28;20426;-75
2023/03/09 03:56:58;;;;;;;21.00;16.95;;;0.80;99.90;;;;;;5024065;28;20500;-76
2023/03/09 03:59:23;;;;;;;21.97;17.30;;;0.70;99.90;;;;;;5023206;28;20509;-77
2023/03/09 04:01:49;;;;;;;22.93;18.77;;;0.70;99.90;;;;;;5023920;28;20473;-77
2023/03/09 04:04:15;;;;;;;22.53;18.00;;;0.70;99.90;;;;;;5023997;28;20439;-77
2023/03/09 04:06:41;;;;;;;22.80;17.30;;;0.80;99.90;;;;;;5024309;28;20431;-76
2023/03/09 04:09:06;;;;;;;24.73;18.17;;;0.80;99.90;;;;;;5023023;28;20466;-77
2023/03/09 04:11:32;;;;;;;25.30;19.00;;;0.80;99.90;;;;;;5026320;28;20505;-77
2023/03/09 04:13:57;;;;;;;23.07;18.60;;;0.70;99.90;;;;;;5021573;28;20427;-76
2023/03/09 04:16:23;;;;;;;21.87;18.37;;;0.80;99.90;;;;;;5022014;28;20418;-76
2023/03/09 04:18:49;;;;;;;29.13;19.73;;;0.70;99.90;;;;;;5015166;28;20441;-77
2023/03/09 04:21:15;;;;;;;22.70;18.13;;;0.80;99.90;;;;;;5021246;28;20469;-76
2023/03/09 04:23:41;;;;;;;24.30;19.20;;;0.80;99.90;;;;;;5022500;28;20588;-77
2023/03/09 04:26:06;;;;;;;24.55;20.60;;;0.90;99.90;;;;;;5022684;28;20431;-76
2023/03/09 04:28:32;;;;;;;23.53;19.50;;;0.80;99.90;;;;;;5022089;28;20419;-76
2023/03/09 04:30:58;;;;;;;24.17;18.87;;;0.70;99.90;;;;;;5023556;28;20430;-76
2023/03/09 04:33:24;;;;;;;24.42;19.80;;;0.80;99.90;;;;;;5022344;28;20430;-76
2023/03/09 04:35:49;;;;;;;26.10;20.75;;;0.70;99.90;;;;;;5022960;28;20490;-77
2023/03/09 04:38:15;;;;;;;24.60;20.30;;;0.70;99.90;;;;;;5026260;28;20414;-76
2023/03/09 04:40:41;;;;;;;24.13;20.07;;;0.70;99.90;;;;;;5017557;28;20422;-76
2023/03/09 04:43:07;;;;;;;26.73;21.37;;;0.70;99.90;;;;;;5026638;28;20484;-76
2023/03/09 04:45:33;;;;;;;24.63;20.20;;;0.80;99.90;;;;;;5027752;28;20430;-77
2023/03/09 04:47:59;;;;;;;25.55;20.20;;;0.70;99.90;;;;;;5029131;28;20514;-75
2023/03/09 04:50:25;;;;;;;24.13;19.35;;;0.60;99.90;;;;;;5025216;28;20430;-76
2023/03/09 04:52:51;;;;;;;25.70;19.60;;;0.80;99.90;;;;;;5027306;28;20924;-75
2023/03/09 04:55:17;;;;;;;25.70;20.25;;;0.80;99.90;;;;;;5028092;28;20422;-76
2023/03/09 04:57:43;;;;;;;28.98;21.65;;;0.70;99.90;;;;;;5030387;28;20457;-76
2023/03/09 05:00:10;;;;;;;27.80;21.37;;;0.60;99.90;;;;;;5027282;28;20543;-76
2023/03/09 05:02:40;;;;;;;26.17;22.00;;;0.80;99.90;;;;;;5021738;28;20418;-76
2023/03/09 05:05:08;;;;;;;27.20;21.03;;;0.60;99.90;;;;;;5017542;28;20453;-76
2023/03/09 05:07:33;;;;;;;27.40;21.67;;;0.60;99.90;;;;;;5020885;28;20442;-76
2023/03/09 05:09:59;;;;;;;26.02;21.52;;;0.60;99.90;;;;;;5020792;28;20998;-77
2023/03/09 05:12:31;;;;;;;27.00;21.80;;;0.60;99.90;;;;;;5023242;28;20793;-76
2023/03/09 05:15:00;;;;;;;26.67;21.30;;;0.60;99.90;;;;;;5021635;28;20909;-76
2023/03/09 05:17:27;;;;;;;28.73;21.27;;;0.60;99.90;;;;;;5026607;28;20505;-75
2023/03/09 05:19:53;;;;;;;26.05;21.23;;;0.60;99.90;;;;;;5026701;28;20497;-75
2023/03/09 05:22:19;;;;;;;27.70;22.40;;;0.60;99.90;;;;;;5012214;28;20432;-76
2023/03/09 05:24:44;;;;;;;29.95;23.35;;;0.60;99.90;;;;;;5023206;28;20465;-75
2023/03/09 05:27:12;;;;;;;29.20;22.42;;;0.50;99.90;;;;;;5029587;28;20480;-76
2023/03/09 05:29:38;;;;;;;29.15;22.40;;;0.50;99.90;;;;;;5025108;28;20910;-74
2023/03/09 05:32:04;;;;;;;27.27;22.52;;;0.50;99.90;;;;;;5009351;28;20440;-75
2023/03/09 05:34:29;;;;;;;30.87;23.90;;;0.60;99.90;;;;;;5027049;28;20423;-74
2023/03/09 05:36:55;;;;;;;28.87;23.03;;;0.50;99.90;;;;;;5029136;28;20473;-75
2023/03/09 05:39:21;;;;;;;29.83;24.30;;;0.60;99.90;;;;;;5026491;28;20492;-75
2023/03/09 05:41:47;;;;;;;29.90;24.17;;;0.60;99.90;;;;;;5026890;28;20431;-74
2023/03/09 05:44:13;;;;;;;29.83;24.90;;;0.60;99.90;;;;;;5028052;28;20426;-76
2023/03/09 05:46:39;;;;;;;28.73;23.83;;;0.60;99.90;;;;;;5026478;28;20929;-75
2023/03/09 05:49:05;;;;;;;34.40;25.10;;;0.70;99.90;;;;;;5026912;28;20438;-75
2023/03/09 05:51:30;;;;;;;29.52;23.35;;;0.60;99.90;;;;;;5010324;28;20447;-76
2023/03/09 05:53:56;;;;;;;29.50;24.30;;;0.60;99.90;;;;;;5008348;28;20427;-75
2023/03/09 05:56:23;;;;;;;27.52;22.67;;;0.70;99.90;;;;;;5027405;28;20770;-74
2023/03/09 05:58:52;;;;;;;31.20;25.17;;;0.60;99.90;;;;;;5026529;28;20481;-76
2023/03/09 06:01:23;;;;;;;28.15;23.52;;;0.60;99.90;;;;;;5028882;28;20430;-76
2023/03/09 06:03:49;;;;;;;33.40;24.38;;;0.70;99.90;;;;;;5027139;28;20419;-76
2023/03/09 06:06:15;;;;;;;30.63;23.67;;;0.80;99.90;;;;;;5026942;28;20443;-75
2023/03/09 06:08:40;;;;;;;30.08;23.27;;;0.80;99.90;;;;;;5028509;28;20505;-75
2023/03/09 06:11:06;;;;;;;26.98;22.40;;;0.80;99.90;;;;;;5016471;28;20547;-75
2023/03/09 06:13:32;;;;;;;28.45;23.05;;;0.80;99.90;;;;;;5028504;28;20403;-75
2023/03/09 06:15:57;;;;;;;29.33;22.83;;;0.90;99.90;;;;;;5025967;28;20836;-75
2023/03/09 06:18:24;;;;;;;27.33;22.63;;;0.90;99.90;;;;;;5027310;28;20510;-75
2023/03/09 06:20:49;;;;;;;27.60;22.42;;;0.90;99.90;;;;;;5023548;28;20420;-76
2023/03/09 06:23:15;;;;;;;27.05;22.10;;;0.90;99.90;;;;;;5029358;28;20821;-76
2023/03/09 06:25:41;;;;;;;26.83;21.92;;;0.90;99.90;;;;;;5026768;28;20824;-75
2023/03/09 06:28:07;;;;;;;28.23;22.55;;;0.90;99.90;;;;;;5024515;28;20433;-75
2023/03/09 06:30:32;;;;;;;26.60;22.77;;;1.00;99.90;;;;;;5024877;28;20879;-75
2023/03/09 06:32:58;;;;;;;27.77;22.23;;;0.90;99.90;;;;;;5026222;28;20504;-76
2023/03/09 06:35:24;;;;;;;26.33;22.50;;;0.90;99.90;;;;;;5022989;28;20458;-76
2023/03/09 06:37:50;;;;;;;28.15;21.60;;;0.90;99.90;;;;;;5026639;28;20426;-76
2023/03/09 06:40:17;;;;;;;26.15;22.00;;;0.90;99.90;;;;;;5024549;28;20876;-75
2023/03/09 06:42:43;;;;;;;28.30;21.90;;;0.90;99.90;;;;;;5028371;28;20952;-75
2023/03/09 06:45:09;;;;;;;27.25;22.90;;;0.90;99.90;;;;;;5026191;28;20435;-76
2023/03/09 06:47:35;;;;;;;26.42;21.65;;;0.90;99.90;;;;;;5024404;28;20419;-74
2023/03/09 06:50:01;;;;;;;26.65;21.65;;;0.90;99.90;;;;;;5025698;28;20496;-75
2023/03/09 06:52:27;;;;;;;26.15;21.73;;;0.80;99.90;;;;;;5025333;28;20419;-75
2023/03/09 06:54:53;;;;;;;27.73;21.60;;;1.00;99.90;;;;;;5026350;28;20461;-75
2023/03/09 06:57:18;;;;;;;31.42;22.13;;;0.90;99.90;;;;;;5026560;28;20879;-74
2023/03/09 06:59:44;;;;;;;26.48;20.65;;;1.00;99.90;;;;;;5011137;28;20512;-76
2023/03/09 07:02:14;;;;;;;28.83;22.38;;;1.00;99.90;;;;;;5026766;28;20427;-76
2023/03/09 07:04:40;;;;;;;25.75;20.35;;;1.10;99.90;;;;;;5024251;28;20774;-76
2023/03/09 07:07:07;;;;;;;29.98;22.63;;;1.00;99.90;;;;;;5023931;28;20419;-76
2023/03/09 07:09:33;;;;;;;24.40;20.98;;;1.10;99.90;;;;;;5009059;28;20411;-76
2023/03/09 07:11:59;;;;;;;26.77;20.45;;;1.20;99.90;;;;;;5024766;28;20443;-76
2023/03/09 07:14:26;;;;;;;26.27;20.95;;;1.20;99.90;;;;;;5028149;28;20498;-75
2023/03/09 07:16:56;;;;;;;27.40;20.45;;;1.20;99.90;;;;;;5024519;28;20931;-77
2023/03/09 07:19:22;;;;;;;25.58;20.52;;;1.20;99.90;;;;;;5025287;28;20470;-76
2023/03/09 07:21:49;;;;;;;27.23;20.20;;;1.30;99.90;;;;;;5024218;28;20435;-77
2023/03/09 07:24:15;;;;;;;27.10;20.95;;;1.50;99.90;;;;;;5027960;28;20418;-76
2023/03/09 07:26:40;;;;;;;25.30;20.27;;;1.40;99.90;;;;;;5026847;28;20788;-76
2023/03/09 07:29:07;;;;;;;27.27;19.90;;;1.40;99.90;;;;;;5024752;28;20422;-77
2023/03/09 07:31:33;;;;;;;23.95;20.15;;;1.40;99.90;;;;;;5026603;28;20434;-76
2023/03/09 07:33:59;;;;;;;22.15;18.95;;;1.40;99.90;;;;;;5025512;28;20486;-76
2023/03/09 07:36:25;;;;;;;21.45;18.38;;;1.40;99.90;;;;;;5024994;28;21050;-76
2023/03/09 07:38:51;;;;;;;21.83;18.53;;;1.60;99.90;;;;;;5025218;28;20517;-76
2023/03/09 07:41:18;;;;;;;23.35;18.65;;;1.60;99.90;;;;;;5026939;28;20506;-76
2023/03/09 07:43:44;;;;;;;22.85;18.20;;;1.80;99.90;;;;;;5027991;28;20457;-76
2023/03/09 07:46:12;;;;;;;20.90;18.40;;;1.80;99.90;;;;;;5027588;28;20472;-75
2023/03/09 07:48:38;;;;;;;22.73;18.67;;;2.00;99.90;;;;;;5021313;28;20557;-76
2023/03/09 07:51:05;;;;;;;20.73;18.40;;;2.00;99.90;;;;;;5025825;28;20545;-76
2023/03/09 07:53:32;;;;;;;22.45;17.63;;;2.00;99.90;;;;;;5027039;28;20811;-75
2023/03/09 07:55:58;;;;;;;22.27;16.83;;;2.00;99.90;;;;;;5026250;28;20442;-76
2023/03/09 07:58:24;;;;;;;18.75;16.67;;;1.90;99.90;;;;;;5023766;28;20419;-76
2023/03/09 08:00:50;;;;;;;19.90;16.70;;;2.10;99.90;;;;;;5024436;28;20429;-77
2023/03/09 08:03:16;;;;;;;20.03;16.70;;;2.10;99.90;;;;;;5025778;28;20495;-75
2023/03/09 08:05:42;;;;;;;18.40;15.40;;;2.00;99.90;;;;;;5008516;28;20431;-76
2023/03/09 08:08:08;;;;;;;18.20;15.13;;;1.90;99.90;;;;;;5023884;28;20502;-76
2023/03/09 08:10:34;;;;;;;19.27;15.40;;;2.10;99.90;;;;;;5025001;28;20427;-78
2023/03/09 08:13:00;;;;;;;18.65;15.88;;;2.00;99.90;;;;;;5024870;28;20430;-76
2023/03/09 08:15:26;;;;;;;17.60;14.07;;;2.30;99.90;;;;;;5016636;28;20420;-75
2023/03/09 08:17:51;;;;;;;18.77;14.43;;;2.20;99.90;;;;;;5022512;28;20427;-75
2023/03/09 08:20:17;;;;;;;20.58;14.48;;;2.20;99.90;;;;;;5027027;28;20438;-76
2023/03/09 08:22:43;;;;;;;19.80;14.82;;;2.30;99.90;;;;;;5020019;28;20769;-75
2023/03/09 08:25:09;;;;;;;17.90;15.47;;;2.40;99.90;;;;;;5013358;28;20435;-77
2023/03/09 08:27:42;;;;;;;16.07;13.20;;;2.50;99.90;;;;;;5011746;28;21577;-75
2023/03/09 08:30:09;;;;;;;17.63;13.00;;;2.40;99.90;;;;;;5019323;28;20786;-74
2023/03/09 08:32:35;;;;;;;16.20;14.13;;;2.30;99.90;;;;;;5022496;28;20418;-75
2023/03/09 08:35:00;;;;;;;15.32;13.63;;;2.40;99.90;;;;;;5021272;28;20470;-75
2023/03/09 08:37:26;;;;;;;15.60;13.70;;;2.40;99.90;;;;;;5019454;28;20483;-75
2023/03/09 08:39:52;;;;;;;15.02;13.00;;;2.40;99.90;;;;;;5016953;28;20439;-75
2023/03/09 08:42:18;;;;;;;16.02;13.77;;;2.50;99.90;;;;;;5020947;28;20972;-75
2023/03/09 08:44:44;;;;;;;14.45;12.85;;;2.30;99.90;;;;;;5019047;28;20526;-76
2023/03/09 08:47:10;;;;;;;16.52;13.60;;;2.40;99.90;;;;;;5023707;28;20498;-74
2023/03/09 08:49:37;;;;;;;15.63;13.27;;;2.50;99.90;;;;;;5016899;28;20531;-75
2023/03/09 08:52:03;;;;;;;26.65;14.75;;;2.60;99.90;;;;;;5012624;28;20430;-75
2023/03/09 08:54:29;;;;;;;16.98;14.00;;;2.70;99.90;;;;;;5025445;28;20438;-74
2023/03/09 08:56:54;;;;;;;14.55;13.13;;;2.60;99.90;;;;;;5025581;28;20434;-73
2023/03/09 08:59:20;;;;;;;14.70;11.77;;;2.80;99.90;;;;;;5024860;28;20486;-76
2023/03/09 09:01:45;;;;;;;15.45;12.05;;;2.70;99.90;;;;;;5023022;28;20435;-75
2023/03/09 09:04:11;;;;;;;13.82;12.23;;;3.20;99.90;;;;;;5025147;28;20446;-74
2023/03/09 09:06:37;;;;;;;13.15;11.68;;;3.40;99.90;;;;;;5005610;28;20439;-74
2023/03/09 09:09:03;;;;;;;15.25;13.75;;;3.30;99.90;;;;;;5018924;28;20422;-75
2023/03/09 09:11:29;;;;;;;14.15;12.25;;;3.20;99.90;;;;;;5023005;28;20438;-75
2023/03/09 09:13:56;;;;;;;13.45;12.05;;;3.10;99.90;;;;;;5026145;28;20419;-75
2023/03/09 09:16:22;;;;;;;12.63;10.38;;;3.10;99.90;;;;;;5022324;28;20786;-75
2023/03/09 09:18:47;;;;;;;12.48;11.18;;;2.90;99.90;;;;;;5024575;28;20506;-76
2023/03/09 09:21:16;;;;;;;12.18;10.88;;;2.70;99.90;;;;;;5025034;28;20418;-75
2023/03/09 09:23:43;;;;;;;12.17;10.47;;;3.20;99.90;;;;;;5024190;28;20446;-73
2023/03/09 09:26:11;;;;;;;13.85;11.15;;;2.80;99.90;;;;;;5022884;28;20450;-74
2023/03/09 09:28:37;;;;;;;12.18;10.65;;;2.80;99.90;;;;;;5026516;28;20773;-74
2023/03/09 09:31:04;;;;;;;10.40;9.40;;;2.90;99.90;;;;;;5026665;28;20419;-75
2023/03/09 09:33:31;;;;;;;11.68;10.48;;;2.80;99.90;;;;;;5027153;28;20423;-74
2023/03/09 09:36:04;;;;;;;15.13;11.65;;;3.00;99.90;;;;;;5022902;28;20553;-74
2023/03/09 09:38:33;;;;;;;12.67;10.63;;;3.10;99.90;;;;;;5029433;28;21324;-77
2023/03/09 09:41:03;;;;;;;11.98;10.55;;;3.20;99.90;;;;;;5016093;28;20546;-74
2023/03/09 09:43:31;;;;;;;11.27;10.18;;;3.00;99.90;;;;;;5020845;28;20418;-74
2023/03/09 09:45:59;;;;;;;12.55;11.32;;;3.00;99.90;;;;;;5019732;28;20932;-73
2023/03/09 09:48:27;;;;;;;12.35;10.65;;;3.00;99.90;;;;;;5015363;28;21198;-73
2023/03/09 09:51:09;;;;;;;13.13;11.73;;;3.00;99.90;;;;;;5016267;28;20418;-74
2023/03/09 09:53:35;;;;;;;12.48;11.18;;;3.10;99.90;;;;;;5015040;28;20424;-74
2023/03/09 09:56:01;;;;;;;11.10;9.97;;;3.20;99.90;;;;;;5024853;28;20901;-74
2023/03/09 09:58:37;;;;;;;9.63;7.95;;;3.40;99.90;;;;;;5022952;28;20856;-74
2023/03/09 10:01:19;;;;;;;9.52;8.55;;;3.50;99.90;;;;;;5026109;28;20438;-73
2023/03/09 10:03:47;;;;;;;10.23;8.38;;;3.50;99.90;;;;;;5025171;28;20430;-73
2023/03/09 10:06:18;;;;;;;9.18;7.75;;;3.60;99.90;;;;;;5027995;28;20430;-73
2023/03/09 10:09:06;;;;;;;9.00;8.10;;;3.60;99.90;;;;;;5029507;28;20761;-73
2023/03/09 10:11:40;;;;;;;10.57;8.55;;;3.60;99.90;;;;;;5017295;28;20460;-74
2023/03/09 10:14:19;;;;;;;10.48;9.15;;;3.40;99.90;;;;;;5020475;28;20923;-75
2023/03/09 10:16:56;;;;;;;9.77;8.82;;;3.70;99.90;;;;;;5027637;28;20419;-73
2023/03/09 10:19:32;;;;;;;9.00;8.10;;;3.60;99.90;;;;;;5023759;28;20430;-73
2023/03/09 10:21:59;;;;;;;10.82;7.63;;;3.80;99.90;;;;;;5025725;28;20782;-73
2023/03/09 10:24:35;;;;;;;10.68;7.90;;;3.80;99.90;;;;;;5015176;28;20452;-72
2023/03/09 10:27:15;;;;;;;9.45;7.68;;;3.90;99.90;;;;;;5016250;28;20411;-73
2023/03/09 10:29:50;;;;;;;9.17;8.20;;;4.10;99.90;;;;;;5017310;28;20424;-72
2023/03/09 10:32:33;;;;;;;9.10;8.10;;;4.20;99.90;;;;;;5023644;28;20431;-77
2023/03/09 10:35:25;;;;;;;8.32;7.43;;;4.10;99.90;;;;;;5021570;28;20454;-74
2023/03/09 10:37:51;;;;;;;9.60;7.75;;;3.70;99.90;;;;;;5017160;28;20913;-75
2023/03/09 10:40:35;;;;;;;8.38;7.35;;;3.80;99.90;;;;;;5028248;28;20557;-73
2023/03/09 10:43:01;;;;;;;8.68;7.78;;;3.90;99.90;;;;;;5027215;28;20431;-73
2023/03/09 10:45:31;;;;;;;8.93;7.38;;;3.60;99.90;;;;;;5027562;28;20442;-74
2023/03/09 10:48:09;;;;;;;7.50;6.60;;;4.00;99.90;;;;;;5021024;28;20479;-73
2023/03/09 10:50:37;;;;;;;8.20;6.80;;;3.60;99.90;;;;;;5025533;28;20440;-74
2023/03/09 10:53:43;;;;;;;8.48;7.20;;;4.00;99.90;;;;;;5018590;28;20900;-73
2023/03/09 10:56:26;;;;;;;8.15;7.40;;;4.00;99.90;;;;;;4987901;28;20815;-73
2023/03/09 10:59:06;;;;;;;9.18;7.30;;;3.80;99.90;;;;;;5018847;28;20427;-73
2023/03/09 11:01:38;;;;;;;8.95;7.65;;;3.60;99.90;;;;;;5025309;28;20433;-72
2023/03/09 11:04:26;;;;;;;9.55;7.70;;;3.90;99.90;;;;;;5025697;28;20415;-75
2023/03/09 11:06:52;;;;;;;10.27;7.95;;;4.10;99.90;;;;;;5001785;28;20747;-73
2023/03/09 11:09:31;;;;;;;8.43;7.25;;;4.10;99.90;;;;;;5027406;28;20423;-73
2023/03/09 11:12:08;;;;;;;8.52;7.63;;;4.40;99.90;;;;;;5020946;28;20418;-73
2023/03/09 11:14:41;;;;;;;8.27;7.47;;;4.30;99.90;;;;;;5027911;28;20837;-73
2023/03/09 11:17:28;;;;;;;10.05;9.02;;;4.40;99.90;;;;;;5025643;28;20465;-73
2023/03/09 11:20:26;;;;;;;9.57;8.27;;;4.30;99.90;;;;;;5017559;28;20873;-73
2023/03/09 11:22:59;;;;;;;9.00;7.20;;;4.30;99.90;;;;;;5014188;28;20423;-74
2023/03/09 11:25:46;;;;;;;9.07;8.18;;;4.20;99.90;;;;;;5027779;28;20470;-73
2023/03/09 11:28:27;;;;;;;9.23;7.65;;;4.30;99.90;;;;;;5026312;28;20445;-74
2023/03/09 11:30:55;;;;;;;8.50;7.60;;;4.50;99.90;;;;;;5026927;28;20431;-75
2023/03/09 11:33:24;;;;;;;8.10;7.30;;;4.70;99.90;;;;;;5014588;28;20432;-74
2023/03/09 11:35:53;;;;;;;10.17;7.80;;;4.60;99.90;;;;;;5025900;28;20454;-75
2023/03/09 11:38:19;;;;;;;7.82;7.03;;;4.60;99.90;;;;;;5026218;28;20900;-74
2023/03/09 11:40:48;;;;;;;9.85;8.10;;;4.40;99.90;;;;;;5026683;28;20437;-74
2023/03/09 11:43:20;;;;;;;8.50;7.35;;;4.50;99.90;;;;;;5025776;28;20442;-73
2023/03/09 11:45:46;;;;;;;8.30;7.43;;;4.20;99.90;;;;;;5025188;28;20484;-75
2023/03/09 11:48:25;;;;;;;7.28;6.57;;;4.40;99.90;;;;;;5026435;28;20418;-75
2023/03/09 11:51:01;;;;;;;7.30;6.60;;;4.30;99.90;;;;;;5025364;28;20423;-74
2023/03/09 11:53:35;;;;;;;8.30;7.45;;;4.30;99.90;;;;;;5027340;28;20418;-74
2023/03/09 11:56:27;;;;;;;8.10;7.30;;;4.50;99.90;;;;;;5025838;28;20455;-73
2023/03/09 11:59:31;;;;;;;8.07;7.28;;;4.50;99.90;;;;;;5012744;28;20419;-74
2023/03/09 12:02:13;;;;;;;7.90;7.10;;;4.70;99.90;;;;;;5006823;28;20940;-73
2023/03/09 12:04:39;;;;;;;8.77;7.65;;;4.50;99.90;;;;;;5008952;28;20422;-74
2023/03/09 12:07:17;;;;;;;7.22;6.47;;;4.70;99.90;;;;;;5026993;28;20926;-75
2023/03/09 12:10:01;;;;;;;8.00;6.40;;;4.80;99.90;;;;;;5025424;28;20438;-74
2023/03/09 12:12:42;;;;;;;8.43;6.50;;;4.70;99.90;;;;;;5024907;28;20435;-74
2023/03/09 12:16:00;;;;;;;6.85;6.15;;;4.80;99.90;;;;;;5027432;28;20423;-74
2023/03/09 12:18:35;;;;;;;8.33;7.03;;;4.70;99.90;;;;;;5017405;28;20422;-74
2023/03/09 12:21:09;;;;;;;7.47;6.68;;;4.90;99.90;;;;;;5026610;28;20415;-75
2023/03/09 12:23:34;;;;;;;7.82;6.68;;;5.00;99.90;;;;;;5023598;28;20431;-74
2023/03/09 12:26:03;;;;;;;7.68;6.88;;;5.00;99.90;;;;;;5025537;28;20438;-75
2023/03/09 12:28:29;;;;;;;6.63;6.00;;;4.80;99.90;;;;;;5025546;28;20431;-74
2023/03/09 12:30:57;;;;;;;7.80;6.47;;;4.90;99.90;;;;;;5025082;28;20427;-74
2023/03/09 12:33:41;;;;;;;7.47;6.45;;;5.10;99.90;;;;;;5024587;28;20419;-73
2023/03/09 12:36:34;;;;;;;8.05;7.25;;;4.90;99.90;;;;;;5023822;28;20430;-74
2023/03/09 12:39:22;;;;;;;7.38;6.55;;;4.90;99.90;;;;;;5003564;28;20453;-73
2023/03/09 12:41:55;;;;;;;8.57;6.85;;;4.80;99.90;;;;;;5007049;28;20496;-77
2023/03/09 12:44:46;;;;;;;8.02;6.82;;;4.60;99.90;;;;;;5019564;28;20454;-74
2023/03/09 12:47:21;;;;;;;7.53;6.50;;;4.90;99.90;;;;;;4994920;28;20435;-75
2023/03/09 12:49:55;;;;;;;7.35;6.45;;;5.10;99.90;;;;;;5019176;28;20415;-75